Time;durP1;ratioP1;P1;durP2;ratioP2;P2;SDS_P1;SDS_P2;PMS_P1;PMS_P2;Temp;Humidity;BMP_temperature;BMP_pressure;BME280_temperature;BME280_humidity;BME280_pressure;Samples;Min_cycle;Max_cycle;Signal;HPM_P1;HPM_P2
2021/10/08 00:02:22;;;;;;;;;;;14.80;99.90;;;;;;5055188;28;19925;-83
2021/10/08 00:04:49;;;;;;;;;;;14.80;99.90;;;;;;5055285;28;19925;-83
2021/10/08 00:07:16;;;;;;;;;;;14.80;99.90;;;;;;5054861;28;19939;-83
2021/10/08 00:09:43;;;;;;;;;;;14.80;99.90;;;;;;5055284;28;20261;-82
2021/10/08 00:12:11;;;;;;;;;;;14.80;99.90;;;;;;5055092;28;19931;-82
2021/10/08 00:14:38;;;;;;;;;;;14.80;99.90;;;;;;5054994;28;19932;-83
2021/10/08 00:17:05;;;;;;;;;;;14.70;99.90;;;;;;5055255;28;19924;-82
2021/10/08 00:19:31;;;;;;;;;;;14.70;99.90;;;;;;5055062;28;20343;-82
2021/10/08 00:21:58;;;;;;;;;;;14.70;99.90;;;;;;5054841;28;19925;-82
2021/10/08 00:24:25;;;;;;;;;;;14.70;99.90;;;;;;5054968;28;19924;-82
2021/10/08 00:26:52;;;;;;;;;;;14.70;99.90;;;;;;5055204;28;19925;-82
2021/10/08 00:29:20;;;;;;;;;;;14.70;99.90;;;;;;5054909;28;19935;-82
2021/10/08 00:31:47;;;;;;;;;;;14.70;99.90;;;;;;5054761;28;19937;-82
2021/10/08 00:34:14;;;;;;;;;;;14.70;99.90;;;;;;5054656;28;19925;-82
2021/10/08 00:36:41;;;;;;;;;;;14.70;99.90;;;;;;5055041;28;19925;-81
2021/10/08 00:39:08;;;;;;;;;;;14.70;99.90;;;;;;5055141;28;20258;-81
2021/10/08 00:41:34;;;;;;;;;;;14.70;99.90;;;;;;5054690;28;20270;-82
2021/10/08 00:44:01;;;;;;;;;;;14.70;99.90;;;;;;5054641;28;20373;-81
2021/10/08 00:46:30;;;;;;;;;;;14.60;99.90;;;;;;5054825;28;19924;-82
2021/10/08 00:48:56;;;;;;;;;;;14.60;99.90;;;;;;5054663;28;19935;-84
2021/10/08 00:51:24;;;;;;;;;;;14.60;99.90;;;;;;5054777;28;19924;-84
2021/10/08 00:53:51;;;;;;;;;;;14.60;99.90;;;;;;5054709;28;19950;-84
2021/10/08 00:56:18;;;;;;;;;;;14.60;99.90;;;;;;5054519;28;20347;-84
2021/10/08 00:58:45;;;;;;;;;;;14.50;99.90;;;;;;5054705;28;19926;-85
2021/10/08 01:01:13;;;;;;;;;;;14.50;99.90;;;;;;5054671;28;19925;-85
2021/10/08 01:03:41;;;;;;;;;;;14.50;99.90;;;;;;5054554;28;19935;-83
2021/10/08 01:06:08;;;;;;;;;;;14.50;99.90;;;;;;5054442;28;19936;-85
2021/10/08 01:08:35;;;;;;;;;;;14.50;99.90;;;;;;5054327;28;19924;-84
2021/10/08 01:11:01;;;;;;;;;;;14.50;99.90;;;;;;5054500;28;19925;-84
2021/10/08 01:13:29;;;;;;;;;;;14.40;99.90;;;;;;5057478;28;19925;-85
2021/10/08 01:15:55;;;;;;;;;;;14.40;99.90;;;;;;5058180;28;19924;-83
2021/10/08 01:18:24;;;;;;;;;;;14.40;99.90;;;;;;5058282;28;19931;-84
2021/10/08 01:20:52;;;;;;;;;;;14.40;99.90;;;;;;5058163;28;19931;-84
2021/10/08 01:23:19;;;;;;;;;;;14.40;99.90;;;;;;5058402;28;20262;-84
2021/10/08 01:25:48;;;;;;;;;;;14.40;99.90;;;;;;5058129;28;20339;-84
2021/10/08 01:28:15;;;;;;;;;;;14.40;99.90;;;;;;5058063;28;19925;-84
2021/10/08 01:30:43;;;;;;;;;;;14.40;99.90;;;;;;5058135;28;19946;-84
2021/10/08 01:33:10;;;;;;;;;;;14.30;99.90;;;;;;5058121;28;19986;-84
2021/10/08 01:35:37;;;;;;;;;;;14.30;99.90;;;;;;5057284;28;19924;-84
2021/10/08 01:38:05;;;;;;;;;;;14.30;99.90;;;;;;5057722;28;20354;-84
2021/10/08 01:40:32;;;;;;;;;;;14.30;99.90;;;;;;5057816;28;19935;-84
2021/10/08 01:42:58;;;;;;;;;;;14.30;99.90;;;;;;5057920;28;19935;-84
2021/10/08 01:45:25;;;;;;;;;;;14.20;99.90;;;;;;5057873;28;19925;-84
2021/10/08 01:47:52;;;;;;;;;;;14.20;99.90;;;;;;5058051;28;20256;-83
2021/10/08 01:50:19;;;;;;;;;;;14.20;99.90;;;;;;5057674;28;19943;-84
2021/10/08 01:52:46;;;;;;;;;;;14.20;99.90;;;;;;5057598;28;19935;-84
2021/10/08 01:55:14;;;;;;;;;;;14.20;99.90;;;;;;5057598;28;19925;-84
2021/10/08 01:57:43;;;;;;;;;;;14.10;99.90;;;;;;5057813;28;20261;-84
2021/10/08 02:00:10;;;;;;;;;;;14.20;99.90;;;;;;5057709;28;20309;-84
2021/10/08 02:02:37;;;;;;;;;;;14.10;99.90;;;;;;5057553;28;20363;-84
2021/10/08 02:05:04;;;;;;;;;;;14.10;99.90;;;;;;5057662;28;19929;-84
2021/10/08 02:07:31;;;;;;;;;;;14.10;99.90;;;;;;5057002;28;19925;-84
2021/10/08 02:09:58;;;;;;;;;;;14.10;99.90;;;;;;5057416;28;20294;-84
2021/10/08 02:12:26;;;;;;;;;;;14.10;99.90;;;;;;5057265;28;20334;-84
2021/10/08 02:14:53;;;;;;;;;;;14.10;99.90;;;;;;5057143;28;19925;-84
2021/10/08 02:17:20;;;;;;;;;;;14.20;99.90;;;;;;5057363;28;19925;-84
2021/10/08 02:19:47;;;;;;;;;;;14.10;99.90;;;;;;5057335;28;19931;-84
2021/10/08 02:22:14;;;;;;;;;;;14.20;99.90;;;;;;5057561;28;19924;-85
2021/10/08 02:24:41;;;;;;;;;;;14.10;99.90;;;;;;5056925;28;19948;-85
2021/10/08 02:27:08;;;;;;;;;;;14.20;99.90;;;;;;5056898;28;20343;-85
2021/10/08 02:29:36;;;;;;;;;;;14.20;99.90;;;;;;5056936;28;19935;-85
2021/10/08 02:32:03;;;;;;;;;;;14.20;99.90;;;;;;5056901;28;19924;-85
2021/10/08 02:34:30;;;;;;;;;;;14.10;99.90;;;;;;5056757;28;19924;-85
2021/10/08 02:36:57;;;;;;;;;;;14.10;99.90;;;;;;5056823;28;20396;-85
2021/10/08 02:39:24;;;;;;;;;;;14.20;99.90;;;;;;5056643;28;20274;-85
2021/10/08 02:41:51;;;;;;;;;;;14.20;99.90;;;;;;5056688;28;19935;-85
2021/10/08 02:44:17;;;;;;;;;;;14.20;99.90;;;;;;5056991;28;19924;-85
2021/10/08 02:46:46;;;;;;;;;;;14.20;99.90;;;;;;5056704;28;19951;-85
2021/10/08 02:49:12;;;;;;;;;;;14.20;99.90;;;;;;5056625;28;19924;-85
2021/10/08 02:51:41;;;;;;;;;;;14.20;99.90;;;;;;5056482;28;19935;-85
2021/10/08 02:54:08;;;;;;;;;;;14.20;99.90;;;;;;5056417;28;19925;-85
2021/10/08 02:56:34;;;;;;;;;;;14.10;99.90;;;;;;5056415;28;19931;-85
2021/10/08 02:59:01;;;;;;;;;;;14.10;99.90;;;;;;5056670;28;19925;-85
2021/10/08 03:01:28;;;;;;;;;;;14.10;99.90;;;;;;5056284;28;19937;-86
2021/10/08 03:03:57;;;;;;;;;;;14.10;99.90;;;;;;5056362;28;19929;-85
2021/10/08 03:06:24;;;;;;;;;;;14.10;99.90;;;;;;5056077;28;20378;-85
2021/10/08 03:08:53;;;;;;;;;;;14.10;99.90;;;;;;5056077;28;20240;-76
2021/10/08 03:11:19;;;;;;;;;;;14.10;99.90;;;;;;5056181;28;19939;-83
2021/10/08 03:13:46;;;;;;;;;;;14.10;99.90;;;;;;5056230;28;20281;-83
2021/10/08 03:16:13;;;;;;;;;;;14.10;99.90;;;;;;5055910;28;19925;-84
2021/10/08 03:18:40;;;;;;;;;;;14.10;99.90;;;;;;5056020;28;19928;-84
2021/10/08 03:21:08;;;;;;;;;;;14.10;99.90;;;;;;5056086;28;19935;-84
2021/10/08 03:23:35;;;;;;;;;;;14.10;99.90;;;;;;5055949;28;20042;-84
2021/10/08 03:26:02;;;;;;;;;;;14.10;99.90;;;;;;5055804;28;19960;-83
2021/10/08 03:28:29;;;;;;;;;;;14.10;99.90;;;;;;5055752;28;20278;-83
2021/10/08 03:30:56;;;;;;;;;;;14.10;99.90;;;;;;5055722;28;20375;-84
2021/10/08 03:33:22;;;;;;;;;;;14.00;99.90;;;;;;5055684;28;19935;-84
2021/10/08 03:35:49;;;;;;;;;;;14.00;99.90;;;;;;5055218;28;19944;-83
2021/10/08 03:38:19;;;;;;;;;;;14.00;99.90;;;;;;5055427;28;19931;-83
2021/10/08 03:40:50;;;;;;;;;;;14.00;99.90;;;;;;5055815;28;19935;-83
2021/10/08 03:43:17;;;;;;;;;;;14.00;99.90;;;;;;5055565;28;20432;-84
2021/10/08 03:45:49;;;;;;;;;;;14.00;99.90;;;;;;5055621;28;19943;-84
2021/10/08 03:48:35;;;;;;;;;;;14.00;99.90;;;;;;5055534;28;19990;-83
2021/10/08 03:51:03;;;;;;;;;;;14.00;99.90;;;;;;5055486;28;19968;-84
2021/10/08 03:53:31;;;;;;;;;;;14.00;99.90;;;;;;5055613;28;19925;-84
2021/10/08 03:55:58;;;;;;;;;;;14.00;99.90;;;;;;5055271;28;19935;-84
2021/10/08 03:58:25;;;;;;;;;;;14.00;99.90;;;;;;5055255;28;19925;-83
2021/10/08 04:00:51;;;;;;;;;;;14.00;99.90;;;;;;5055181;28;19928;-84
2021/10/08 04:03:18;;;;;;;;;;;14.00;99.90;;;;;;5055294;28;19935;-84
2021/10/08 04:05:45;;;;;;;;;;;14.00;99.90;;;;;;5055152;28;19935;-84
2021/10/08 04:08:12;;;;;;;;;;;14.00;99.90;;;;;;5055024;28;19935;-84
2021/10/08 04:10:40;;;;;;;;;;;14.10;99.90;;;;;;5055086;28;20262;-84
2021/10/08 04:13:07;;;;;;;;;;;14.00;99.90;;;;;;5055024;28;19925;-83
2021/10/08 04:15:36;;;;;;;;;;;14.00;99.90;;;;;;5054990;28;19939;-84
2021/10/08 04:18:02;;;;;;;;;;;14.10;99.90;;;;;;5054798;28;19924;-84
2021/10/08 04:20:29;;;;;;;;;;;14.10;99.90;;;;;;5055198;28;19925;-84
2021/10/08 04:22:56;;;;;;;;;;;14.10;99.90;;;;;;5055097;28;19943;-84
2021/10/08 04:25:23;;;;;;;;;;;14.10;99.90;;;;;;5054998;28;20365;-83
2021/10/08 04:27:51;;;;;;;;;;;14.10;99.90;;;;;;5054915;28;19924;-84
2021/10/08 04:30:18;;;;;;;;;;;14.10;99.90;;;;;;5054810;28;19925;-84
2021/10/08 04:32:45;;;;;;;;;;;14.10;99.90;;;;;;5054736;28;19951;-83
2021/10/08 04:35:12;;;;;;;;;;;14.10;99.90;;;;;;5055023;28;20272;-83
2021/10/08 04:37:38;;;;;;;;;;;14.10;99.90;;;;;;5054837;28;19925;-84
2021/10/08 04:40:06;;;;;;;;;;;14.10;99.90;;;;;;5054880;28;19925;-84
2021/10/08 04:42:33;;;;;;;;;;;14.00;99.90;;;;;;5054712;28;20343;-84
2021/10/08 04:45:01;;;;;;;;;;;14.00;99.90;;;;;;5054727;28;20342;-84
2021/10/08 04:47:28;;;;;;;;;;;14.00;99.90;;;;;;5056009;28;19925;-84
2021/10/08 04:49:54;;;;;;;;;;;14.00;99.90;;;;;;5058871;28;19929;-84
2021/10/08 04:52:21;;;;;;;;;;;14.00;99.90;;;;;;5058873;28;19939;-84
2021/10/08 04:54:48;;;;;;;;;;;14.00;99.90;;;;;;5058705;28;19928;-84
2021/10/08 04:57:15;;;;;;;;;;;14.00;99.90;;;;;;5058815;28;19924;-84
2021/10/08 04:59:42;;;;;;;;;;;14.00;99.90;;;;;;5058627;28;20011;-84
2021/10/08 05:02:10;;;;;;;;;;;14.00;99.90;;;;;;5058590;28;19925;-84
2021/10/08 05:04:37;;;;;;;;;;;14.00;99.90;;;;;;5058580;28;19935;-85
2021/10/08 05:07:04;;;;;;;;;;;14.00;99.90;;;;;;5058378;28;19928;-85
2021/10/08 05:09:31;;;;;;;;;;;14.00;99.90;;;;;;5058467;28;19925;-85
2021/10/08 05:11:57;;;;;;;;;;;14.00;99.90;;;;;;5058512;28;19925;-85
2021/10/08 05:14:24;;;;;;;;;;;14.00;99.90;;;;;;5058366;28;20236;-85
2021/10/08 05:16:51;;;;;;;;;;;14.00;99.90;;;;;;5058292;28;20007;-85
2021/10/08 05:19:20;;;;;;;;;;;13.90;99.90;;;;;;5058321;28;19931;-85
2021/10/08 05:21:48;;;;;;;;;;;13.90;99.90;;;;;;5058234;28;20032;-85
2021/10/08 05:24:15;;;;;;;;;;;13.90;99.90;;;;;;5058141;28;19933;-85
2021/10/08 05:26:42;;;;;;;;;;;13.90;99.90;;;;;;5058194;28;19929;-85
2021/10/08 05:29:09;;;;;;;;;;;13.90;99.90;;;;;;5058139;28;19935;-85
2021/10/08 05:31:36;;;;;;;;;;;13.90;99.90;;;;;;5058252;28;20267;-85
2021/10/08 05:34:02;;;;;;;;;;;13.90;99.90;;;;;;5058030;28;19925;-85
2021/10/08 05:36:31;;;;;;;;;;;13.80;99.90;;;;;;5057896;28;19931;-85
2021/10/08 05:38:58;;;;;;;;;;;13.80;99.90;;;;;;5057850;28;20365;-85
2021/10/08 05:41:24;;;;;;;;;;;13.80;99.90;;;;;;5057870;28;19935;-85
2021/10/08 05:43:51;;;;;;;;;;;13.80;99.90;;;;;;5057725;28;19925;-85
2021/10/08 05:46:18;;;;;;;;;;;13.80;99.90;;;;;;5057778;28;19933;-85
2021/10/08 05:48:45;;;;;;;;;;;13.80;99.90;;;;;;5057759;28;20258;-85
2021/10/08 05:51:12;;;;;;;;;;;13.80;99.90;;;;;;5057794;28;19947;-85
2021/10/08 05:53:40;;;;;;;;;;;13.80;99.90;;;;;;5057635;28;20270;-84
2021/10/08 05:56:07;;;;;;;;;;;13.70;99.90;;;;;;5057482;28;19931;-85
2021/10/08 05:58:34;;;;;;;;;;;13.70;99.90;;;;;;5057102;28;19928;-84
2021/10/08 06:01:01;;;;;;;;;;;13.70;99.90;;;;;;5057680;28;19935;-84
2021/10/08 06:03:28;;;;;;;;;;;13.70;99.90;;;;;;5057626;28;19925;-83
2021/10/08 06:05:55;;;;;;;;;;;13.70;99.90;;;;;;5057311;28;20358;-84
2021/10/08 06:08:21;;;;;;;;;;;13.70;99.90;;;;;;5057131;28;19935;-83
2021/10/08 06:10:50;;;;;;;;;;;13.60;99.90;;;;;;5057342;28;19924;-83
2021/10/08 06:13:16;;;;;;;;;;;13.60;99.90;;;;;;5057251;28;19925;-83
2021/10/08 06:15:43;;;;;;;;;;;13.60;99.90;;;;;;5057213;28;19951;-83
2021/10/08 06:18:10;;;;;;;;;;;13.60;99.90;;;;;;5057342;28;19925;-84
2021/10/08 06:20:37;;;;;;;;;;;13.60;99.90;;;;;;5057171;28;20262;-84
2021/10/08 06:23:04;;;;;;;;;;;13.60;99.90;;;;;;5057317;28;19928;-84
2021/10/08 06:25:31;;;;;;;;;;;13.60;99.90;;;;;;5057096;28;19925;-83
2021/10/08 06:27:59;;;;;;;;;;;13.60;99.90;;;;;;5057219;28;19929;-83
2021/10/08 06:30:26;;;;;;;;;;;13.50;99.90;;;;;;5056848;28;20358;-84
2021/10/08 06:32:53;;;;;;;;;;;13.50;99.90;;;;;;5056962;28;20274;-84
2021/10/08 06:35:21;;;;;;;;;;;13.50;99.90;;;;;;5056808;28;20359;-83
2021/10/08 06:37:47;;;;;;;;;;;13.50;99.90;;;;;;5056794;28;19924;-83
2021/10/08 06:40:14;;;;;;;;;;;13.50;99.90;;;;;;5056600;28;19924;-83
2021/10/08 06:42:41;;;;;;;;;;;13.50;99.90;;;;;;5057006;28;19925;-83
2021/10/08 06:45:10;;;;;;;;;;;13.50;99.90;;;;;;5056714;28;20255;-83
2021/10/08 06:47:37;;;;;;;;;;;13.50;99.90;;;;;;5056809;28;19925;-84
2021/10/08 06:50:04;;;;;;;;;;;13.50;99.90;;;;;;5056618;28;19933;-83
2021/10/08 06:52:31;;;;;;;;;;;13.50;99.90;;;;;;5056698;28;19924;-83
2021/10/08 06:54:58;;;;;;;;;;;13.50;99.90;;;;;;5056399;28;19925;-84
2021/10/08 06:57:25;;;;;;;;;;;13.60;99.90;;;;;;5056542;28;19925;-83
2021/10/08 06:59:51;;;;;;;;;;;13.60;99.90;;;;;;5056364;28;20255;-83
2021/10/08 07:02:20;;;;;;;;;;;13.60;99.90;;;;;;5056419;28;19925;-83
2021/10/08 07:04:46;;;;;;;;;;;13.70;99.90;;;;;;5056388;28;19924;-84
2021/10/08 07:07:13;;;;;;;;;;;13.70;99.90;;;;;;5056032;28;19929;-83
2021/10/08 07:09:40;;;;;;;;;;;13.70;99.90;;;;;;5055496;28;19925;-83
2021/10/08 07:12:07;;;;;;;;;;;13.80;99.90;;;;;;5056134;28;20358;-83
2021/10/08 07:14:34;;;;;;;;;;;13.80;99.90;;;;;;5056023;28;19935;-83
2021/10/08 07:17:01;;;;;;;;;;;13.80;99.90;;;;;;5055897;28;19924;-83
2021/10/08 07:19:30;;;;;;;;;;;13.90;99.90;;;;;;5055974;28;20002;-83
2021/10/08 07:21:57;;;;;;;;;;;13.90;99.90;;;;;;5056072;28;19936;-83
2021/10/08 07:24:23;;;;;;;;;;;14.00;99.90;;;;;;5056139;28;20258;-83
2021/10/08 07:26:50;;;;;;;;;;;14.00;99.90;;;;;;5055918;28;20347;-83
2021/10/08 07:29:17;;;;;;;;;;;14.10;99.90;;;;;;5055916;28;19925;-83
2021/10/08 07:31:44;;;;;;;;;;;14.10;99.90;;;;;;5055875;28;19925;-82
2021/10/08 07:34:11;;;;;;;;;;;14.10;99.90;;;;;;5056001;28;19925;-83
2021/10/08 07:36:39;;;;;;;;;;;14.20;99.90;;;;;;5055777;28;19935;-83
2021/10/08 07:39:06;;;;;;;;;;;14.20;99.90;;;;;;5059148;28;20380;-83
2021/10/08 07:41:33;;;;;;;;;;;14.20;99.90;;;;;;5075506;28;20306;-83
2021/10/08 07:44:00;;;;;;;;;;;14.30;99.90;;;;;;5074681;28;20368;-83
2021/10/08 07:46:26;;;;;;;;;;;14.30;99.90;;;;;;5075605;28;19935;-83
2021/10/08 07:48:53;;;;;;;;;;;14.30;99.90;;;;;;5075335;28;19928;-83
2021/10/08 07:51:20;;;;;;;;;;;14.30;99.90;;;;;;5075293;28;19931;-83
2021/10/08 07:53:49;;;;;;;;;;;14.30;99.90;;;;;;5075238;28;19959;-82
2021/10/08 07:56:16;;;;;;;;;;;14.40;99.90;;;;;;5075444;28;19924;-83
2021/10/08 07:58:42;;;;;;;;;;;14.40;99.90;;;;;;5075369;28;19924;-83
2021/10/08 08:01:09;;;;;;;;;;;14.50;99.90;;;;;;5075365;28;19924;-83
2021/10/08 08:03:36;;;;;;;;;;;14.50;99.90;;;;;;5075563;28;20290;-83
2021/10/08 08:06:03;;;;;;;;;;;14.50;99.90;;;;;;5075223;28;19939;-83
2021/10/08 08:08:30;;;;;;;;;;;14.60;99.90;;;;;;5075008;28;19924;-83
2021/10/08 08:10:58;;;;;;;;;;;14.60;99.90;;;;;;5057775;28;19943;-82
2021/10/08 08:13:25;;;;;;;;;;;14.60;99.90;;;;;;5055383;28;20263;-82
2021/10/08 08:15:52;;;;;;;;;;;14.60;99.90;;;;;;5054924;28;19924;-83
2021/10/08 08:18:18;;;;;;;;;;;14.70;99.90;;;;;;5055122;28;19925;-82
2021/10/08 08:20:45;;;;;;;;;;;14.70;99.90;;;;;;5054004;28;19936;-81
2021/10/08 08:23:12;;;;;;;;;;;14.70;99.90;;;;;;5055043;28;19925;-82
2021/10/08 08:25:39;;;;;;;;;;;14.80;99.90;;;;;;5055014;28;19924;-83
2021/10/08 08:28:07;;;;;;;;;;;14.80;99.90;;;;;;5055155;28;19925;-82
2021/10/08 08:30:37;;;;;;;;;;;14.90;99.90;;;;;;5054836;28;19928;-83
2021/10/08 08:33:04;;;;;;;;;;;14.90;99.90;;;;;;5054937;28;19956;-83
2021/10/08 08:35:31;;;;;;;;;;;15.00;99.90;;;;;;5075026;28;20246;-84
2021/10/08 08:37:59;;;;;;;;;;;15.00;99.90;;;;;;5074685;28;20342;-83
2021/10/08 08:40:29;;;;;;;;;;;15.10;99.90;;;;;;5074686;28;19935;-83
2021/10/08 08:42:56;;;;;;;;;;;15.20;99.90;;;;;;5074664;28;19990;-84
2021/10/08 08:45:24;;;;;;;;;;;15.20;99.90;;;;;;5074763;28;19925;-84
2021/10/08 08:47:57;;;;;;;;;;;15.30;99.90;;;;;;5075101;28;20327;-83
2021/10/08 08:50:24;;;;;;;;;;;15.30;99.90;;;;;;5075093;28;19928;-83
2021/10/08 08:52:50;;;;;;;;;;;15.30;99.90;;;;;;5074981;28;20243;-78
2021/10/08 08:55:17;;;;;;;;;;;15.30;99.90;;;;;;5074689;28;20362;-75
2021/10/08 08:57:44;;;;;;;;;;;15.30;99.90;;;;;;5074599;28;19928;-77
2021/10/08 09:00:12;;;;;;;;;;;15.40;99.90;;;;;;5074768;28;19924;-76
2021/10/08 09:02:41;;;;;;;;;;;15.40;99.90;;;;;;5075062;28;20020;-89
2021/10/08 09:05:11;;;;;;;;;;;15.40;99.90;;;;;;5074609;28;19932;-77
2021/10/08 09:07:38;;;;;;;;;;;15.50;99.90;;;;;;5074701;28;19969;-76
2021/10/08 09:10:12;;;;;;;;;;;15.50;99.90;;;;;;5066988;28;19925;-76
2021/10/08 09:12:39;;;;;;;;;;;15.50;99.90;;;;;;5054557;28;19925;-75
2021/10/08 09:15:07;;;;;;;;;;;15.60;99.90;;;;;;5054356;28;19979;-76
2021/10/08 09:17:33;;;;;;;;;;;15.70;99.90;;;;;;5054584;28;19982;-77
2021/10/08 09:20:02;;;;;;;;;;;15.80;99.90;;;;;;5054414;28;19936;-76
2021/10/08 09:22:32;;;;;;;;;;;15.80;99.90;;;;;;5054271;28;20019;-75
2021/10/08 09:25:07;;;;;;;;;;;15.90;99.90;;;;;;5053618;28;19983;-75
2021/10/08 09:27:35;;;;;;;;;;;16.00;99.90;;;;;;5054390;28;19935;-76
2021/10/08 09:30:02;;;;;;;;;;;16.00;99.90;;;;;;5054524;28;19932;-77
2021/10/08 09:32:29;;;;;;;;;;;16.10;99.90;;;;;;5054458;28;19925;-78
2021/10/08 09:35:05;;;;;;;;;;;16.20;99.90;;;;;;5057923;28;20362;-77
2021/10/08 09:37:32;;;;;;;;;;;16.30;99.90;;;;;;5058088;28;19935;-78
2021/10/08 09:39:58;;;;;;;;;;;16.30;99.90;;;;;;5057890;28;19929;-78
2021/10/08 09:42:32;;;;;;;;;;;16.30;99.90;;;;;;5058105;28;20236;-78
2021/10/08 09:44:58;;;;;;;;;;;16.40;99.90;;;;;;5057695;28;20371;-76
2021/10/08 09:47:26;;;;;;;;;;;16.40;99.90;;;;;;5057840;28;19925;-78
2021/10/08 09:49:54;;;;;;;;;;;16.40;99.90;;;;;;5057888;28;19932;-77
2021/10/08 09:52:23;;;;;;;;;;;16.40;99.90;;;;;;5057720;28;19925;-77
2021/10/08 09:54:50;;;;;;;;;;;16.40;99.90;;;;;;5057613;28;19933;-77
2021/10/08 09:57:17;;;;;;;;;;;16.40;99.90;;;;;;5057541;28;19924;-78
2021/10/08 09:59:44;;;;;;;;;;;16.40;99.90;;;;;;5057769;28;19924;-78
2021/10/08 10:02:11;;;;;;;;;;;16.30;99.90;;;;;;5057731;28;20335;-77
2021/10/08 10:04:47;;;;;;;;;;;16.40;99.90;;;;;;5057389;28;19925;-78
2021/10/08 10:07:14;;;;;;;;;;;16.40;99.90;;;;;;5057239;28;19928;-91
2021/10/08 10:09:43;;;;;;;;;;;16.40;99.90;;;;;;5057300;28;19935;-78
2021/10/08 10:12:10;;;;;;;;;;;16.40;99.90;;;;;;5060424;28;19968;-77
2021/10/08 10:14:36;;;;;;;;;;;16.40;99.90;;;;;;5057825;28;19925;-76
2021/10/08 10:17:03;;;;;;;;;;;16.40;99.90;;;;;;5057473;28;19939;-78
2021/10/08 10:19:30;;;;;;;;;;;16.40;99.90;;;;;;5057087;28;19925;-81
2021/10/08 10:21:57;;;;;;;;;;;16.40;99.90;;;;;;5057137;28;20362;-82
2021/10/08 10:24:24;;;;;;;;;;;16.30;99.90;;;;;;5057064;28;19925;-82
2021/10/08 10:26:52;;;;;;;;;;;16.40;99.90;;;;;;5057140;28;20373;-81
2021/10/08 10:29:19;;;;;;;;;;;16.40;99.90;;;;;;5057554;28;19935;-82
2021/10/08 10:31:46;;;;;;;;;;;16.50;99.90;;;;;;5057218;28;19925;-84
2021/10/08 10:34:13;;;;;;;;;;;16.50;99.90;;;;;;5057438;28;19925;-75
2021/10/08 10:36:40;;;;;;;;;;;16.60;99.90;;;;;;5056729;28;20339;-77
2021/10/08 10:39:15;;;;;;;;;;;16.70;99.90;;;;;;5056777;28;19935;-77
2021/10/08 10:41:42;;;;;;;;;;;16.80;99.90;;;;;;5056810;28;20023;-77
2021/10/08 10:44:21;;;;;;;;;;;16.80;99.90;;;;;;5056807;28;20270;-79
2021/10/08 10:46:51;;;;;;;;;;;16.90;99.90;;;;;;5057558;28;19936;-79
2021/10/08 10:49:29;;;;;;;;;;;16.90;99.90;;;;;;5056988;28;19925;-77
2021/10/08 10:52:14;;;;;;;;;;;16.90;99.90;;;;;;5056614;28;19935;-76
2021/10/08 10:55:14;;;;;;;;;;;16.90;99.90;;;;;;5056450;28;19925;-76
2021/10/08 10:57:55;;;;;;;;;;;17.00;99.90;;;;;;5015104;28;19933;-76
2021/10/08 11:00:29;;;;;;;;;;;16.90;99.90;;;;;;5015072;28;19934;-76
2021/10/08 11:02:59;;;;;;;;;;;16.90;99.90;;;;;;5015118;28;19925;-76
2021/10/08 11:05:27;;;;;;;;;;;16.90;99.90;;;;;;5014939;28;19929;-76
2021/10/08 11:08:10;;;;;;;;;;;16.90;99.90;;;;;;5014577;28;19925;-76
2021/10/08 11:10:37;;;;;;;;;;;16.90;99.90;;;;;;5014625;28;20240;-76
2021/10/08 11:13:24;;;;;;;;;;;16.90;99.90;;;;;;5014721;28;19984;-75
2021/10/08 11:15:55;;;;;;;;;;;16.90;99.90;;;;;;5014667;28;20363;-76
2021/10/08 11:18:38;;;;;;;;;;;17.00;99.90;;;;;;5014602;28;19925;-76
2021/10/08 11:21:05;;;;;;;;;;;17.10;99.90;;;;;;5014666;28;19969;-76
2021/10/08 11:23:32;;;;;;;;;;;17.20;99.90;;;;;;5014818;28;19945;-76
2021/10/08 11:26:00;;;;;;;;;;;17.20;99.90;;;;;;5014669;28;19949;-76
2021/10/08 11:28:28;;;;;;;;;;;17.30;99.90;;;;;;5032271;28;19931;-76
2021/10/08 11:30:56;;;;;;;;;;;17.30;99.90;;;;;;5055706;28;19940;-75
2021/10/08 11:33:39;;;;;;;;;;;17.50;99.90;;;;;;5055021;28;19935;-76
2021/10/08 11:36:15;;;;;;;;;;;17.50;99.90;;;;;;5054681;28;19935;-76
2021/10/08 11:38:42;;;;;;;;;;;17.60;99.90;;;;;;5055482;28;19931;-76
2021/10/08 11:41:16;;;;;;;;;;;17.70;99.90;;;;;;5055434;28;19925;-75
2021/10/08 11:43:43;;;;;;;;;;;17.70;99.90;;;;;;5055927;28;19924;-75
2021/10/08 11:48:59;;;;;;;;;;;17.70;99.90;;;;;;5055399;28;19929;-75
2021/10/08 11:51:26;;;;;;;;;;;17.70;99.90;;;;;;5055507;28;20389;-76
2021/10/08 11:53:55;;;;;;;;;;;17.70;99.90;;;;;;5054807;28;20282;-75
2021/10/08 11:56:27;;;;;;;;;;;17.70;99.90;;;;;;5054932;28;19925;-76
2021/10/08 11:58:55;;;;;;;;;;;17.80;99.90;;;;;;5055491;28;19925;-75
2021/10/08 12:01:23;;;;;;;;;;;17.80;99.90;;;;;;5055321;28;19931;-76
2021/10/08 12:03:50;;;;;;;;;;;17.90;99.90;;;;;;5055313;28;19935;-76
2021/10/08 12:06:23;;;;;;;;;;;17.90;99.90;;;;;;5055478;28;19925;-75
2021/10/08 12:08:49;;;;;;;;;;;18.00;99.90;;;;;;5058836;28;19935;-75
2021/10/08 12:11:18;;;;;;;;;;;18.00;99.90;;;;;;5063998;28;19924;-75
2021/10/08 12:13:45;;;;;;;;;;;17.90;99.90;;;;;;5075102;28;19925;-76
2021/10/08 12:16:12;;;;;;;;;;;17.90;99.90;;;;;;5075461;28;19925;-76
2021/10/08 12:18:47;;;;;;;;;;;17.90;99.90;;;;;;5075020;28;19935;-75
2021/10/08 12:21:15;;;;;;;;;;;17.80;99.90;;;;;;5075019;28;19931;-76
2021/10/08 12:23:42;;;;;;;;;;;17.90;99.90;;;;;;5075339;28;19932;-75
2021/10/08 12:26:08;;;;;;;;;;;17.90;99.90;;;;;;5075148;28;19925;-76
2021/10/08 12:28:35;;;;;;;;;;;17.90;99.90;;;;;;5074982;28;19928;-76
2021/10/08 12:31:03;;;;;;;;;;;17.90;99.90;;;;;;5074933;28;20026;-76
2021/10/08 12:33:30;;;;;;;;;;;17.80;99.90;;;;;;5074847;28;19924;-75
2021/10/08 12:36:18;;;;;;;;;;;17.90;99.90;;;;;;5074971;28;19925;-75
2021/10/08 12:38:51;;;;;;;;;;;17.90;99.90;;;;;;5074715;28;19924;-75
2021/10/08 12:41:22;;;;;;;;;;;17.90;99.90;;;;;;5074632;28;19925;-76
2021/10/08 12:43:49;;;;;;;;;;;17.90;99.90;;;;;;5075244;28;19933;-75
2021/10/08 12:46:20;;;;;;;;;;;17.90;99.90;;;;;;5074703;28;19975;-76
2021/10/08 12:48:57;;;;;;;;;;;18.00;99.90;;;;;;5075056;28;19925;-75
2021/10/08 12:51:25;;;;;;;;;;;17.90;99.90;;;;;;5074758;28;20347;-75
2021/10/08 12:54:07;;;;;;;;;;;17.90;99.90;;;;;;5074635;28;19935;-75
2021/10/08 12:56:34;;;;;;;;;;;17.90;99.90;;;;;;5074322;28;19935;-75
2021/10/08 12:59:00;;;;;;;;;;;17.80;99.90;;;;;;5074590;28;19924;-76
2021/10/08 13:01:27;;;;;;;;;;;17.80;99.90;;;;;;5074644;28;20335;-75
2021/10/08 13:03:55;;;;;;;;;;;17.80;99.90;;;;;;5074681;28;19924;-75
2021/10/08 13:06:32;;;;;;;;;;;17.80;99.90;;;;;;5074947;28;19925;-76
2021/10/08 13:09:04;;;;;;;;;;;17.80;99.90;;;;;;5076940;28;20012;-76
2021/10/08 13:11:35;;;;;;;;;;;17.80;99.90;;;;;;5078379;28;19925;-75
2021/10/08 13:14:02;;;;;;;;;;;17.90;99.90;;;;;;5078671;28;19933;-76
2021/10/08 13:16:29;;;;;;;;;;;17.90;99.90;;;;;;5078678;28;19925;-76
2021/10/08 13:18:56;;;;;;;;;;;17.90;99.90;;;;;;5078347;28;19938;-75
2021/10/08 13:21:23;;;;;;;;;;;17.90;99.90;;;;;;5078263;28;20263;-75
2021/10/08 13:23:52;;;;;;;;;;;17.90;99.90;;;;;;5078206;28;19935;-76
2021/10/08 13:26:19;;;;;;;;;;;17.90;99.90;;;;;;5078156;28;19924;-75
2021/10/08 13:28:45;;;;;;;;;;;18.00;99.90;;;;;;5078209;28;19934;-75
2021/10/08 13:31:12;;;;;;;;;;;17.90;99.90;;;;;;5078028;28;20338;-76
2021/10/08 13:33:41;;;;;;;;;;;17.80;99.90;;;;;;5078078;28;19924;-75
2021/10/08 13:36:08;;;;;;;;;;;17.80;99.90;;;;;;5077961;28;19924;-76
2021/10/08 13:38:35;;;;;;;;;;;17.70;99.90;;;;;;5078163;28;19926;-75
2021/10/08 13:41:04;;;;;;;;;;;17.60;99.90;;;;;;5077958;28;19935;-75
2021/10/08 13:43:30;;;;;;;;;;;17.60;99.90;;;;;;5077795;28;19924;-75
2021/10/08 13:45:57;;;;;;;;;;;17.50;99.90;;;;;;5077767;28;20015;-75
2021/10/08 13:48:24;;;;;;;;;;;17.50;99.90;;;;;;5077868;28;19950;-77
2021/10/08 13:50:51;;;;;;;;;;;17.50;99.90;;;;;;5076781;28;19947;-76
2021/10/08 13:53:18;;;;;;;;;;;17.50;99.90;;;;;;5077396;28;20242;-76
2021/10/08 13:55:45;;;;;;;;;;;17.50;99.90;;;;;;5077679;28;19924;-76
2021/10/08 13:58:13;;;;;;;;;;;17.50;99.90;;;;;;5077816;28;19924;-75
2021/10/08 14:00:43;;;;;;;;;;;17.50;99.90;;;;;;5077713;28;19935;-75
2021/10/08 14:03:22;;;;;;;;;;;17.50;99.90;;;;;;5077543;28;19935;-75
2021/10/08 14:06:07;;;;;;;;;;;17.50;99.90;;;;;;5077582;28;19924;-75
2021/10/08 14:08:37;;;;;;;;;;;17.50;99.90;;;;;;5077433;28;19924;-76
2021/10/08 14:11:06;;;;;;;;;;;17.60;99.90;;;;;;5077609;28;20002;-76
2021/10/08 14:13:34;;;;;;;;;;;17.50;99.90;;;;;;5077975;28;20044;-78
2021/10/08 14:16:01;;;;;;;;;;;17.50;99.90;;;;;;5077404;28;20270;-76
2021/10/08 14:18:28;;;;;;;;;;;17.50;99.90;;;;;;5076923;28;20365;-76
2021/10/08 14:20:54;;;;;;;;;;;17.50;99.90;;;;;;5077376;28;20369;-76
2021/10/08 14:23:21;;;;;;;;;;;17.50;99.90;;;;;;5077142;28;19934;-75
2021/10/08 14:25:49;;;;;;;;;;;17.40;99.90;;;;;;5077292;28;19931;-76